Metlakatla, Alaska
Current Conditions -  °F | °C
As of 2:16 AM on Sunday 21 Dec 2014 (Local Time) from PAMM Reporting Station
Overcast Overcast  
Wind Chill: 45°   Ceiling: 3000
Heat Index: 45°   Visibility: 10mi
Dew Point: 43°   Wind: 0mph
Humidity: 93%   Direction: NA
Pressure: 29.29"   Gusts: NA
Location:  55.11°N, 131.58°W
Report Text: PAMM 211116Z AUTO 00000KT 10SM FEW025 BKN030 OVC042 07/06 A2929 RMK AO1 P0001
Loading
Personal Weather Stations






























Interactive Weather Map New forecast layout! Learn more

10-Day Weather Forecast

Advertisements
Track Severe Weather on mobile